createdAt,value
2023-04-13T00:00:48.859Z,6.40
2023-04-13T00:03:15.879Z,6.30
2023-04-13T00:05:44.120Z,6.20
2023-04-13T00:08:11.056Z,6.20
2023-04-13T00:10:37.995Z,6.10
2023-04-13T00:13:06.047Z,6.10
2023-04-13T00:15:33.918Z,6.10
2023-04-13T00:18:01.335Z,6.10
2023-04-13T00:20:28.447Z,6.00
2023-04-13T00:22:55.369Z,6.00
2023-04-13T00:25:22.310Z,6.00
2023-04-13T00:27:51.063Z,5.90
2023-04-13T00:30:19.038Z,5.90
2023-04-13T00:32:46.582Z,5.90
2023-04-13T00:35:18.008Z,5.90
2023-04-13T00:37:48.377Z,5.90
2023-04-13T00:40:15.245Z,5.80
2023-04-13T00:42:44.582Z,5.80
2023-04-13T00:45:11.973Z,5.80
2023-04-13T00:47:38.943Z,5.80
2023-04-13T00:50:06.767Z,5.80
2023-04-13T00:52:34.067Z,5.70
2023-04-13T00:55:01.336Z,5.70
2023-04-13T00:57:28.268Z,5.60
2023-04-13T00:59:55.640Z,5.60
2023-04-13T01:02:23.074Z,5.60
2023-04-13T01:04:50.526Z,5.50
2023-04-13T01:07:30.797Z,5.50
2023-04-13T01:10:28.379Z,5.40
2023-04-13T01:13:16.805Z,5.30
2023-04-13T01:16:10.217Z,5.20
2023-04-13T01:18:40.491Z,5.10
2023-04-13T01:21:10.825Z,5.00
2023-04-13T01:23:46.778Z,5.10
2023-04-13T01:26:14.102Z,4.90
2023-04-13T01:28:41.033Z,5.00
2023-04-13T01:31:08.336Z,4.90
2023-04-13T01:33:35.397Z,4.80
2023-04-13T01:36:02.723Z,4.80
2023-04-13T01:38:29.624Z,4.80
2023-04-13T01:40:56.509Z,4.80
2023-04-13T01:43:24.639Z,4.70
2023-04-13T01:45:54.257Z,4.70
2023-04-13T01:48:28.660Z,4.70
2023-04-13T01:50:59.834Z,4.70
2023-04-13T01:53:35.555Z,4.60
2023-04-13T01:56:04.001Z,4.60
2023-04-13T01:58:32.763Z,4.70
2023-04-13T02:01:00.266Z,4.60
2023-04-13T02:03:27.283Z,4.60
2023-04-13T02:05:54.212Z,4.60
2023-04-13T02:08:21.060Z,4.50
2023-04-13T02:10:47.919Z,4.50
2023-04-13T02:13:14.983Z,4.50
2023-04-13T02:15:41.963Z,4.50
2023-04-13T02:18:08.843Z,4.50
2023-04-13T02:20:40.247Z,4.50
2023-04-13T02:23:07.162Z,4.50
2023-04-13T02:25:34.225Z,4.40
2023-04-13T02:28:01.150Z,4.40
2023-04-13T02:30:28.209Z,4.40
2023-04-13T02:32:56.217Z,4.40
2023-04-13T02:35:23.128Z,4.40
2023-04-13T02:37:50.059Z,4.30
2023-04-13T02:40:16.992Z,4.40
2023-04-13T02:42:43.940Z,4.40
2023-04-13T02:45:11.370Z,4.30
2023-04-13T02:47:38.819Z,4.30
2023-04-13T02:50:06.255Z,4.30
2023-04-13T02:52:33.113Z,4.30
2023-04-13T02:55:00.043Z,4.30
2023-04-13T02:57:26.940Z,4.30
2023-04-13T02:59:53.825Z,4.30
2023-04-13T03:02:21.231Z,4.20
2023-04-13T03:04:48.124Z,4.20
2023-04-13T03:07:15.271Z,4.20
2023-04-13T03:09:42.253Z,4.20
2023-04-13T03:12:09.378Z,4.30
2023-04-13T03:14:37.096Z,4.20
2023-04-13T03:17:04.910Z,4.20
2023-04-13T03:19:33.550Z,4.20
2023-04-13T03:22:00.433Z,4.10
2023-04-13T03:24:27.395Z,4.20
2023-04-13T03:26:57.990Z,4.20
2023-04-13T03:29:25.094Z,4.20
2023-04-13T03:31:52.167Z,4.20
2023-04-13T03:34:19.234Z,4.20
2023-04-13T03:36:46.396Z,4.30
2023-04-13T03:39:13.472Z,4.30
2023-04-13T03:41:40.364Z,4.20
2023-04-13T03:44:08.189Z,4.20
2023-04-13T03:46:35.658Z,4.20
2023-04-13T03:49:02.804Z,4.10
2023-04-13T03:51:29.681Z,4.10
2023-04-13T03:53:56.645Z,4.00
2023-04-13T03:56:23.829Z,4.00
2023-04-13T03:58:50.821Z,3.80
2023-04-13T04:01:17.697Z,3.80
2023-04-13T04:03:44.706Z,3.80
2023-04-13T04:06:11.623Z,3.80
2023-04-13T04:08:38.626Z,3.80
2023-04-13T04:11:05.692Z,3.90
2023-04-13T04:13:32.553Z,3.90
2023-04-13T04:15:59.446Z,3.90
2023-04-13T04:18:26.397Z,4.00
2023-04-13T04:20:53.262Z,4.00
2023-04-13T04:23:20.147Z,4.00
2023-04-13T04:25:47.011Z,3.90
2023-04-13T04:28:13.882Z,3.90
2023-04-13T04:30:40.721Z,3.90
2023-04-13T04:33:07.612Z,3.90
2023-04-13T04:35:34.600Z,3.80
2023-04-13T04:38:02.201Z,3.80
2023-04-13T04:40:29.158Z,3.80
2023-04-13T04:42:56.052Z,3.90
2023-04-13T04:45:23.042Z,3.90
2023-04-13T04:47:50.055Z,3.90
2023-04-13T04:50:17.062Z,3.80
2023-04-13T04:52:44.060Z,3.80
2023-04-13T04:55:10.982Z,3.80
2023-04-13T04:57:37.851Z,3.80
2023-04-13T05:00:05.307Z,3.80
2023-04-13T05:02:32.347Z,3.80
2023-04-13T05:04:59.333Z,3.70
2023-04-13T05:07:26.184Z,3.80
2023-04-13T05:09:53.098Z,3.80
2023-04-13T05:12:19.967Z,3.70
2023-04-13T05:14:46.799Z,3.70
2023-04-13T05:17:13.768Z,3.70
2023-04-13T05:19:40.641Z,3.70
2023-04-13T05:22:07.499Z,3.70
2023-04-13T05:24:34.392Z,3.70
2023-04-13T05:27:01.242Z,3.70
2023-04-13T05:29:28.133Z,3.70
2023-04-13T05:31:55.084Z,3.70
2023-04-13T05:34:22.046Z,3.80
2023-04-13T05:36:48.894Z,3.80
2023-04-13T05:39:15.786Z,3.90
2023-04-13T05:41:42.758Z,4.00
2023-04-13T05:44:09.685Z,4.10
2023-04-13T05:46:36.553Z,4.20
2023-04-13T05:49:03.734Z,4.30
2023-04-13T05:51:30.874Z,4.40
2023-04-13T05:53:58.102Z,4.40
2023-04-13T05:56:25.399Z,4.50
2023-04-13T05:58:52.937Z,4.60
2023-04-13T06:01:19.888Z,4.60
2023-04-13T06:03:47.232Z,4.70
2023-04-13T06:06:14.788Z,4.70
2023-04-13T06:08:41.637Z,4.80
2023-04-13T06:11:08.518Z,4.80
2023-04-13T06:13:35.459Z,4.80
2023-04-13T06:16:02.573Z,4.80
2023-04-13T06:18:29.617Z,5.00
2023-04-13T06:20:57.973Z,5.10
2023-04-13T06:23:24.985Z,5.10
2023-04-13T06:25:51.849Z,5.30
2023-04-13T06:28:18.817Z,5.40
2023-04-13T06:30:45.735Z,5.50
2023-04-13T06:33:12.913Z,5.70
2023-04-13T06:35:39.761Z,5.80
2023-04-13T06:38:06.709Z,5.90
2023-04-13T06:40:33.615Z,6.00
2023-04-13T06:43:00.531Z,6.10
2023-04-13T06:45:27.355Z,6.10
2023-04-13T06:47:54.333Z,6.20
2023-04-13T06:50:21.284Z,6.30
2023-04-13T06:52:49.044Z,6.40
2023-04-13T06:55:16.053Z,6.40
2023-04-13T06:57:44.527Z,6.50
2023-04-13T07:00:22.277Z,6.60
2023-04-13T07:02:57.923Z,6.70
2023-04-13T07:05:24.909Z,6.80
2023-04-13T07:07:51.805Z,6.90
2023-04-13T07:10:18.729Z,7.00
2023-04-13T07:12:45.680Z,7.00
2023-04-13T07:15:12.606Z,7.10
2023-04-13T07:17:39.571Z,7.10
2023-04-13T07:20:07.213Z,7.20
2023-04-13T07:22:34.477Z,7.40
2023-04-13T07:25:02.111Z,7.50
2023-04-13T07:27:28.986Z,7.60
2023-04-13T07:29:55.851Z,7.50
2023-04-13T07:32:28.109Z,7.50
2023-04-13T07:34:57.743Z,7.70
2023-04-13T07:37:24.651Z,7.90
2023-04-13T07:39:51.503Z,8.00
2023-04-13T07:42:18.409Z,8.10
2023-04-13T07:44:45.247Z,8.20
2023-04-13T07:47:12.077Z,8.40
2023-04-13T07:49:39.155Z,8.50
2023-04-13T07:52:06.028Z,8.60
2023-04-13T07:54:32.928Z,8.70
2023-04-13T07:56:59.847Z,8.80
2023-04-13T07:59:26.786Z,8.90
2023-04-13T08:01:53.730Z,9.00
2023-04-13T08:04:20.853Z,8.80
2023-04-13T08:06:48.009Z,9.00
2023-04-13T08:09:15.184Z,9.20
2023-04-13T08:11:44.809Z,9.40
2023-04-13T08:14:11.748Z,9.60
2023-04-13T08:16:38.798Z,9.60
2023-04-13T08:19:05.771Z,9.70
2023-04-13T08:21:32.614Z,9.70
2023-04-13T08:23:59.448Z,9.60
2023-04-13T08:26:26.362Z,10.00
2023-04-13T08:28:53.250Z,12.20
2023-04-13T08:31:20.466Z,13.60
2023-04-13T08:33:47.455Z,14.80
2023-04-13T08:36:14.481Z,15.10
2023-04-13T08:38:41.364Z,16.10
2023-04-13T08:41:10.107Z,15.50
2023-04-13T08:43:37.126Z,13.20
2023-04-13T08:46:04.691Z,14.30
2023-04-13T08:48:46.115Z,14.30
2023-04-13T08:51:22.315Z,11.80
2023-04-13T08:53:49.971Z,11.80
2023-04-13T08:56:17.734Z,11.50
2023-04-13T08:58:47.120Z,11.90
2023-04-13T09:01:15.271Z,11.80
2023-04-13T09:04:06.850Z,11.40
2023-04-13T09:06:37.125Z,10.90
2023-04-13T09:09:04.684Z,10.80
2023-04-13T09:11:32.654Z,10.50
2023-04-13T09:13:59.705Z,10.50
2023-04-13T09:16:26.721Z,10.60
2023-04-13T09:18:55.773Z,10.40
2023-04-13T09:21:24.072Z,10.20
2023-04-13T09:23:58.840Z,10.30
2023-04-13T09:26:26.340Z,10.50
2023-04-13T09:28:56.414Z,10.20
2023-04-13T09:31:23.687Z,10.30
2023-04-13T09:33:52.738Z,10.10
2023-04-13T09:36:21.150Z,10.10
2023-04-13T09:38:52.775Z,10.30
2023-04-13T09:41:39.723Z,10.30
2023-04-13T09:44:16.842Z,10.40
2023-04-13T09:46:57.185Z,10.50
2023-04-13T09:49:24.285Z,10.30
2023-04-13T09:51:51.347Z,10.20
2023-04-13T09:54:24.175Z,10.10
2023-04-13T09:56:51.637Z,10.20
2023-04-13T09:59:24.590Z,10.20
2023-04-13T10:01:52.296Z,10.30
2023-04-13T10:04:19.793Z,10.20
2023-04-13T10:06:46.748Z,10.20
2023-04-13T10:09:13.676Z,10.10
2023-04-13T10:11:50.491Z,10.20
2023-04-13T10:14:30.502Z,10.20
2023-04-13T10:17:25.320Z,10.30
2023-04-13T10:19:54.158Z,10.40
2023-04-13T10:22:22.531Z,10.30
2023-04-13T10:24:49.853Z,10.30
2023-04-13T10:27:19.675Z,10.30
2023-04-13T10:29:47.140Z,10.60
2023-04-13T10:32:25.832Z,10.70
2023-04-13T10:34:53.784Z,10.70
2023-04-13T10:37:25.460Z,10.80
2023-04-13T10:40:03.033Z,10.90
2023-04-13T10:42:51.666Z,10.90
2023-04-13T10:45:24.720Z,11.00
2023-04-13T10:47:52.103Z,10.80
2023-04-13T10:50:23.964Z,10.60
2023-04-13T10:53:02.663Z,10.40
2023-04-13T10:55:29.956Z,10.60
2023-04-13T10:57:58.100Z,10.70
2023-04-13T11:00:41.851Z,10.80
2023-04-13T11:03:13.140Z,10.70
2023-04-13T11:05:40.242Z,10.80
2023-04-13T11:08:07.396Z,11.00
2023-04-13T11:10:34.249Z,11.10
2023-04-13T11:13:01.124Z,11.10
2023-04-13T11:15:29.901Z,10.90
2023-04-13T11:17:58.736Z,11.00
2023-04-13T11:20:38.276Z,10.80
2023-04-13T11:23:14.227Z,11.00
2023-04-13T11:25:51.109Z,11.00
2023-04-13T11:28:17.987Z,10.60
2023-04-13T11:30:52.612Z,10.60
2023-04-13T11:33:28.193Z,10.80
2023-04-13T11:35:56.939Z,10.60
2023-04-13T11:38:23.896Z,10.70
2023-04-13T11:40:58.901Z,10.80
2023-04-13T11:43:35.189Z,10.70
2023-04-13T11:46:02.351Z,10.70
2023-04-13T11:48:29.579Z,10.90
2023-04-13T11:50:58.230Z,11.00
2023-04-13T11:53:25.107Z,11.00
2023-04-13T11:55:53.773Z,11.20
2023-04-13T11:58:21.450Z,11.40
2023-04-13T12:00:49.275Z,11.40
2023-04-13T12:03:34.430Z,11.40
2023-04-13T12:06:06.319Z,11.40
2023-04-13T12:08:33.987Z,11.40
2023-04-13T12:13:53.466Z,11.20
2023-04-13T12:17:02.008Z,11.40
2023-04-13T12:19:23.620Z,11.40
2023-04-13T12:21:55.672Z,11.40
2023-04-13T12:24:32.920Z,11.50
2023-04-13T12:27:17.836Z,12.60
2023-04-13T12:29:45.899Z,13.50
2023-04-13T12:32:14.249Z,13.10
2023-04-13T12:34:42.485Z,12.50
2023-04-13T12:37:10.849Z,12.60
2023-04-13T12:39:37.719Z,12.50
2023-04-13T12:42:04.839Z,12.60
2023-04-13T12:44:33.819Z,12.50
2023-04-13T12:47:01.529Z,13.90
2023-04-13T12:49:28.585Z,14.30
2023-04-13T12:51:55.499Z,14.60
2023-04-13T12:54:22.444Z,15.10
2023-04-13T12:56:49.281Z,14.70
2023-04-13T12:59:16.130Z,15.30
2023-04-13T13:01:43.049Z,15.90
2023-04-13T13:04:09.982Z,16.30
2023-04-13T13:06:37.019Z,16.20
2023-04-13T13:09:03.933Z,16.40
2023-04-13T13:11:31.152Z,17.60
2023-04-13T13:13:58.029Z,18.00
2023-04-13T13:16:25.057Z,16.60
2023-04-13T13:18:52.590Z,15.70
2023-04-13T13:21:19.664Z,15.80
2023-04-13T13:23:46.567Z,16.30
2023-04-13T13:26:24.053Z,15.70
2023-04-13T13:28:51.893Z,15.20
2023-04-13T13:31:22.527Z,15.00
2023-04-13T13:33:49.470Z,15.30
2023-04-13T13:36:16.407Z,15.80
2023-04-13T13:38:43.762Z,15.80
2023-04-13T13:41:10.751Z,14.30
2023-04-13T13:43:38.506Z,13.80
2023-04-13T13:46:06.123Z,14.00
2023-04-13T13:48:33.196Z,14.10
2023-04-13T13:51:00.043Z,14.10
2023-04-13T13:53:26.992Z,14.10
2023-04-13T13:55:54.330Z,14.20
2023-04-13T13:58:21.212Z,14.10
2023-04-13T14:00:48.092Z,14.10
2023-04-13T14:03:15.193Z,13.80
2023-04-13T14:05:42.412Z,13.90
2023-04-13T14:08:09.528Z,14.00
2023-04-13T14:10:36.819Z,13.70
2023-04-13T14:13:03.674Z,14.00
2023-04-13T14:15:30.744Z,14.20
2023-04-13T14:18:09.889Z,14.10
2023-04-13T14:20:39.592Z,14.20
2023-04-13T14:23:07.092Z,14.10
2023-04-13T14:25:33.952Z,13.90
2023-04-13T14:28:01.172Z,13.80
2023-04-13T14:30:28.583Z,13.60
2023-04-13T14:32:55.674Z,13.30
2023-04-13T14:35:22.667Z,13.30
2023-04-13T14:37:49.586Z,13.20
2023-04-13T14:40:16.542Z,13.10
2023-04-13T14:42:43.919Z,13.10
2023-04-13T14:45:11.188Z,13.20
2023-04-13T14:47:38.452Z,13.30
2023-04-13T14:50:06.216Z,13.30
2023-04-13T14:52:33.136Z,13.40
2023-04-13T14:55:00.058Z,13.30
2023-04-13T14:57:27.918Z,13.40
2023-04-13T14:59:56.332Z,13.50
2023-04-13T15:02:23.878Z,13.60
2023-04-13T15:04:51.101Z,13.60
2023-04-13T15:07:18.053Z,13.40
2023-04-13T15:09:44.889Z,13.50
2023-04-13T15:12:13.383Z,13.50
2023-04-13T15:14:40.691Z,13.50
2023-04-13T15:17:07.652Z,13.50
2023-04-13T15:19:34.501Z,13.50
2023-04-13T15:22:01.374Z,13.40
2023-04-13T15:24:28.290Z,13.30
2023-04-13T15:26:55.240Z,13.20
2023-04-13T15:29:22.146Z,13.20
2023-04-13T15:31:49.052Z,13.00
2023-04-13T15:34:15.955Z,13.20
2023-04-13T15:36:42.903Z,13.10
2023-04-13T15:39:09.775Z,13.10
2023-04-13T15:41:36.622Z,13.10
2023-04-13T15:44:03.522Z,13.10
2023-04-13T15:46:32.029Z,13.10
2023-04-13T15:48:59.349Z,13.00
2023-04-13T15:51:26.648Z,13.10
2023-04-13T15:53:53.622Z,13.80
2023-04-13T15:56:20.660Z,14.10
2023-04-13T15:58:47.529Z,14.20
2023-04-13T16:01:14.527Z,14.20
2023-04-13T16:03:41.833Z,13.90
2023-04-13T16:06:08.926Z,13.70
2023-04-13T16:08:35.854Z,13.60
2023-04-13T16:11:02.754Z,13.60
2023-04-13T16:13:44.952Z,13.60
2023-04-13T16:16:15.497Z,13.70
2023-04-13T16:18:42.451Z,14.50
2023-04-13T16:21:09.380Z,14.90
2023-04-13T16:23:36.365Z,14.80
2023-04-13T16:26:03.302Z,14.50
2023-04-13T16:28:30.177Z,14.10
2023-04-13T16:30:57.245Z,13.90
2023-04-13T16:33:24.144Z,13.80
2023-04-13T16:35:51.748Z,13.80
2023-04-13T16:38:18.638Z,13.60
2023-04-13T16:40:45.562Z,13.60
2023-04-13T16:43:12.667Z,13.40
2023-04-13T16:45:39.579Z,13.40
2023-04-13T16:48:06.712Z,13.20
2023-04-13T16:50:33.875Z,13.10
2023-04-13T16:53:00.862Z,13.00
2023-04-13T16:55:27.798Z,13.00
2023-04-13T16:57:54.985Z,13.00
2023-04-13T17:00:22.427Z,12.90
2023-04-13T17:02:49.553Z,12.80
2023-04-13T17:05:16.605Z,12.90
2023-04-13T17:07:44.342Z,12.80
2023-04-13T17:10:12.616Z,12.80
2023-04-13T17:12:39.836Z,12.80
2023-04-13T17:15:07.493Z,12.70
2023-04-13T17:17:35.112Z,12.60
2023-04-13T17:20:02.405Z,12.50
2023-04-13T17:22:29.354Z,12.50
2023-04-13T17:24:56.336Z,12.50
2023-04-13T17:27:23.343Z,12.50
2023-04-13T17:29:50.339Z,12.40
2023-04-13T17:32:17.371Z,12.40
2023-04-13T17:34:44.321Z,12.40
2023-04-13T17:37:11.240Z,12.40
2023-04-13T17:39:38.258Z,12.30
2023-04-13T17:42:05.323Z,12.20
2023-04-13T17:44:32.317Z,12.20
2023-04-13T17:46:59.254Z,12.10
2023-04-13T17:49:26.193Z,12.00
2023-04-13T17:51:53.041Z,11.80
2023-04-13T17:54:20.043Z,11.60
2023-04-13T17:56:47.395Z,11.50
2023-04-13T17:59:14.282Z,11.40
2023-04-13T18:01:42.248Z,11.30
2023-04-13T18:04:13.627Z,11.20
2023-04-13T18:06:41.464Z,11.20
2023-04-13T18:09:08.320Z,11.10
2023-04-13T18:11:35.243Z,11.00
2023-04-13T18:14:02.897Z,11.00
2023-04-13T18:16:29.965Z,10.90
2023-04-13T18:18:56.965Z,10.80
2023-04-13T18:21:23.901Z,10.80
2023-04-13T18:23:50.821Z,10.70
2023-04-13T18:26:17.976Z,10.60
2023-04-13T18:28:44.836Z,10.50
2023-04-13T18:31:11.726Z,10.50
2023-04-13T18:33:38.646Z,10.40
2023-04-13T18:36:05.803Z,10.30
2023-04-13T18:38:35.866Z,10.30
2023-04-13T18:41:02.722Z,10.20
2023-04-13T18:43:29.588Z,10.10
2023-04-13T18:45:56.457Z,10.10
2023-04-13T18:48:23.382Z,10.00
2023-04-13T18:50:50.259Z,10.00
2023-04-13T18:53:17.171Z,9.80
2023-04-13T18:55:51.370Z,9.80
2023-04-13T18:58:20.607Z,9.70
2023-04-13T19:00:48.091Z,9.60
2023-04-13T19:03:15.242Z,9.60
2023-04-13T19:05:42.204Z,9.50
2023-04-13T19:08:09.315Z,9.50
2023-04-13T19:10:36.492Z,9.40
2023-04-13T19:13:03.472Z,9.30
2023-04-13T19:15:31.314Z,9.30
2023-04-13T19:17:58.175Z,9.30
2023-04-13T19:20:25.374Z,9.30
2023-04-13T19:22:52.259Z,9.20
2023-04-13T19:25:19.475Z,9.40
2023-04-13T19:27:47.006Z,9.20
2023-04-13T19:30:16.513Z,9.10
2023-04-13T19:32:45.658Z,9.10
2023-04-13T19:35:13.265Z,9.10
2023-04-13T19:37:40.556Z,9.00
2023-04-13T19:40:08.579Z,9.00
2023-04-13T19:42:36.272Z,9.00
2023-04-13T19:45:03.880Z,8.90
2023-04-13T19:47:30.852Z,8.90
2023-04-13T19:49:57.745Z,8.80
2023-04-13T19:52:24.598Z,8.80
2023-04-13T19:54:51.643Z,8.80
2023-04-13T19:57:18.651Z,8.80
2023-04-13T19:59:45.592Z,8.70
2023-04-13T20:02:12.739Z,8.70
2023-04-13T20:04:39.871Z,8.70
2023-04-13T20:07:07.154Z,8.60
2023-04-13T20:09:34.102Z,8.60
2023-04-13T20:12:01.003Z,8.50
2023-04-13T20:14:27.893Z,8.50
2023-04-13T20:16:54.778Z,8.50
2023-04-13T20:19:21.643Z,8.50
2023-04-13T20:21:48.482Z,8.60
2023-04-13T20:24:15.338Z,8.50
2023-04-13T20:26:42.193Z,8.50
2023-04-13T20:29:09.398Z,8.40
2023-04-13T20:31:36.460Z,8.40
2023-04-13T20:34:03.697Z,8.30
2023-04-13T20:36:31.326Z,8.40
2023-04-13T20:38:58.189Z,8.30
2023-04-13T20:41:29.454Z,8.20
2023-04-13T20:43:56.302Z,8.20
2023-04-13T20:46:23.182Z,8.10
2023-04-13T20:48:50.221Z,8.10
2023-04-13T20:51:17.865Z,8.10
2023-04-13T20:53:44.948Z,8.10
2023-04-13T20:56:12.037Z,8.10
2023-04-13T20:58:38.899Z,8.10
2023-04-13T21:01:05.915Z,8.00
2023-04-13T21:03:32.976Z,8.00
2023-04-13T21:06:00.449Z,8.20
2023-04-13T21:08:27.481Z,8.20
2023-04-13T21:10:54.398Z,8.10
2023-04-13T21:13:22.184Z,8.00
2023-04-13T21:15:49.057Z,7.90
2023-04-13T21:18:15.926Z,7.70
2023-04-13T21:20:43.691Z,7.60
2023-04-13T21:23:10.540Z,7.50
2023-04-13T21:25:37.959Z,7.50
2023-04-13T21:28:04.920Z,7.60
2023-04-13T21:30:31.898Z,7.60
2023-04-13T21:32:58.853Z,7.60
2023-04-13T21:35:25.765Z,7.50
2023-04-13T21:37:52.652Z,7.50
2023-04-13T21:40:19.597Z,7.50
2023-04-13T21:42:46.477Z,7.60
2023-04-13T21:45:13.692Z,7.60
2023-04-13T21:47:40.623Z,7.60
2023-04-13T21:50:08.267Z,7.50
2023-04-13T21:52:35.295Z,7.60
2023-04-13T21:55:02.226Z,7.60
2023-04-13T21:57:29.123Z,7.50
2023-04-13T21:59:56.020Z,7.40
2023-04-13T22:02:25.925Z,7.40
2023-04-13T22:04:52.933Z,7.40
2023-04-13T22:07:26.029Z,7.50
2023-04-13T22:10:02.792Z,7.50
2023-04-13T22:12:29.968Z,7.50
2023-04-13T22:14:56.823Z,7.50
2023-04-13T22:17:23.693Z,7.50
2023-04-13T22:19:50.613Z,7.60
2023-04-13T22:22:17.459Z,7.60
2023-04-13T22:24:44.424Z,7.60
2023-04-13T22:27:11.290Z,7.50
2023-04-13T22:29:38.149Z,7.50
2023-04-13T22:32:05.006Z,7.60
2023-04-13T22:34:31.867Z,7.60
2023-04-13T22:36:58.760Z,7.60
2023-04-13T22:39:25.617Z,7.50
2023-04-13T22:41:52.443Z,7.50
2023-04-13T22:44:19.278Z,7.50
2023-04-13T22:46:46.224Z,7.50
2023-04-13T22:49:13.107Z,7.50
2023-04-13T22:51:40.349Z,7.50
2023-04-13T22:54:07.269Z,7.50
2023-04-13T22:56:34.150Z,7.50
2023-04-13T22:59:01.212Z,7.40
2023-04-13T23:01:28.332Z,7.40
2023-04-13T23:03:55.471Z,7.40
2023-04-13T23:06:22.542Z,7.30
2023-04-13T23:08:49.394Z,7.30
2023-04-13T23:11:16.234Z,7.20
2023-04-13T23:13:43.117Z,7.30
2023-04-13T23:16:10.060Z,7.20
2023-04-13T23:18:36.960Z,7.20
2023-04-13T23:21:11.354Z,7.10
2023-04-13T23:23:41.000Z,7.10
2023-04-13T23:26:07.982Z,7.00
2023-04-13T23:28:34.831Z,7.00
2023-04-13T23:31:06.008Z,7.00
2023-04-13T23:33:36.015Z,6.90
2023-04-13T23:36:02.927Z,7.00
2023-04-13T23:38:30.285Z,7.00
2023-04-13T23:40:57.796Z,6.90
2023-04-13T23:43:25.160Z,6.90
2023-04-13T23:45:53.337Z,6.80
2023-04-13T23:48:22.323Z,6.80
2023-04-13T23:50:49.808Z,6.90
2023-04-13T23:53:16.765Z,6.80
2023-04-13T23:55:43.614Z,6.80
2023-04-13T23:58:10.495Z,6.80
